Terminal Aerodrome Forecast
Issued by NWS Cleveland, OH

Home | Current Version | Previous Version | Graphics & Text | Print | Product List | Glossary On
Versions: 1 2 3 4 5 6 7 8 9 10 11 12 13 14
000
FTUS41 KCLE 280900 AAA
TAFERI
TAF AMD
KERI 280942Z 2810/2906 36008KT P6SM SCT250
     FM281230 34006KT P6SM BKN030
     FM281500 33008KT P6SM SCT250=

USA.gov is the U.S. government's official web portal to all federal, state and local government web resources and services.